Weather at Key West International Airport

Public forecast

Using degrees Fahrenheit for public forecast. Weather courtesy of forecast.io.

Current aviation weather report (METAR) for Key West International Airport

Retrieved 2020/12/04 03:53 UTC (26 minutes ago):

KEYW 040353Z AUTO 05005KT 10SM CLR 21/17 A3015 RMK AO2 SLP210 T02060172

Aviation forecast (TAF) for Key West International Airport

Retrieved 2020-12-04 00:39 UTC (4 hours ago):

TAF KEYW 032336Z 0400/0424 08009KT P6SM SCT030 SCT150 FM041400 11009KT P6SM BKN200